Time;durP1;ratioP1;P1;durP2;ratioP2;P2;SDS_P1;SDS_P2;PMS_P1;PMS_P2;Temp;Humidity;BMP_temperature;BMP_pressure;BME280_temperature;BME280_humidity;BME280_pressure;Samples;Min_cycle;Max_cycle;Signal;HPM_P1;HPM_P2
2023/01/21 00:00:42;;;;;;;7.15;3.90;;;15.50;42.50;;;;;;5096072;27;46332;-68
2023/01/21 00:03:11;;;;;;;6.32;3.88;;;15.50;42.60;;;;;;5102390;27;45497;-68
2023/01/21 00:05:38;;;;;;;7.28;3.90;;;15.50;42.60;;;;;;5092355;27;45280;-68
2023/01/21 00:08:05;;;;;;;7.35;4.05;;;15.50;42.60;;;;;;5093168;27;45535;-68
2023/01/21 00:10:32;;;;;;;8.35;4.25;;;15.50;42.70;;;;;;5103065;27;46563;-68
2023/01/21 00:12:59;;;;;;;6.75;3.80;;;15.50;42.80;;;;;;5098042;27;45505;-68
2023/01/21 00:15:26;;;;;;;9.45;4.60;;;15.50;42.70;;;;;;5094875;27;45473;-68
2023/01/21 00:17:53;;;;;;;7.50;4.68;;;15.50;42.70;;;;;;5101684;27;45436;-68
2023/01/21 00:20:21;;;;;;;7.82;4.95;;;15.50;42.60;;;;;;5103467;27;48202;-68
2023/01/21 00:22:48;;;;;;;9.25;5.15;;;15.40;42.40;;;;;;5098126;27;45434;-68
2023/01/21 00:25:15;;;;;;;8.10;4.35;;;15.50;42.40;;;;;;5095680;27;45361;-68
2023/01/21 00:27:41;;;;;;;7.20;4.30;;;15.50;43.60;;;;;;5102918;27;45371;-68
2023/01/21 00:30:10;;;;;;;7.10;4.45;;;15.50;42.50;;;;;;5094903;27;47666;-68
2023/01/21 00:32:36;;;;;;;6.90;4.55;;;15.50;42.50;;;;;;5090506;27;45281;-68
2023/01/21 00:35:04;;;;;;;6.95;4.60;;;15.50;42.50;;;;;;5091036;27;45336;-68
2023/01/21 00:37:32;;;;;;;7.50;4.35;;;15.50;42.50;;;;;;5089887;27;45576;-68
2023/01/21 00:39:59;;;;;;;7.88;4.82;;;15.50;42.60;;;;;;5097613;27;46615;-68
2023/01/21 00:42:27;;;;;;;8.90;4.63;;;15.50;42.60;;;;;;5096794;27;45297;-68
2023/01/21 00:44:56;;;;;;;7.93;4.55;;;15.50;42.70;;;;;;5100852;27;45307;-68
2023/01/21 00:47:23;;;;;;;8.25;4.68;;;15.50;42.50;;;;;;5096735;27;45469;-68
2023/01/21 00:49:49;;;;;;;6.75;4.68;;;15.50;42.60;;;;;;5102514;27;46282;-68
2023/01/21 00:52:16;;;;;;;7.55;4.90;;;15.50;42.70;;;;;;5102258;27;45243;-68
2023/01/21 00:54:44;;;;;;;7.65;4.93;;;15.40;42.60;;;;;;5093879;27;45312;-68
2023/01/21 00:57:12;;;;;;;7.72;5.05;;;15.40;42.60;;;;;;5084171;27;45561;-68
2023/01/21 00:59:39;;;;;;;6.78;4.70;;;15.40;43.80;;;;;;5094793;27;46322;-68
2023/01/21 01:02:06;;;;;;;8.85;5.10;;;15.40;42.70;;;;;;5093961;27;45213;-68
2023/01/21 01:04:33;;;;;;;7.07;5.20;;;15.40;42.80;;;;;;5102716;27;45404;-68
2023/01/21 01:07:00;;;;;;;9.52;5.15;;;15.40;42.70;;;;;;5100914;27;45375;-68
2023/01/21 01:09:27;;;;;;;7.47;5.30;;;15.40;42.60;;;;;;5093839;27;46448;-68
2023/01/21 01:11:55;;;;;;;10.75;5.80;;;15.40;42.50;;;;;;5107967;27;45329;-68
2023/01/21 01:14:22;;;;;;;11.05;5.40;;;15.30;42.30;;;;;;5105518;27;45422;-69
2023/01/21 01:16:49;;;;;;;9.30;4.90;;;15.40;42.30;;;;;;5102477;27;45324;-68
2023/01/21 01:19:16;;;;;;;8.73;5.75;;;15.40;42.40;;;;;;5109613;27;45480;-68
2023/01/21 01:21:43;;;;;;;9.15;5.72;;;15.40;42.30;;;;;;5109743;27;45304;-69
2023/01/21 01:24:10;;;;;;;9.50;5.75;;;15.40;42.20;;;;;;5109401;27;45382;-68
2023/01/21 01:26:36;;;;;;;7.22;4.95;;;15.40;42.20;;;;;;5101047;27;45238;-68
2023/01/21 01:29:05;;;;;;;7.63;5.40;;;15.40;42.20;;;;;;5108271;27;47080;-69
2023/01/21 01:31:32;;;;;;;8.82;5.43;;;15.40;42.30;;;;;;5095085;27;45461;-68
2023/01/21 01:33:59;;;;;;;11.27;5.55;;;15.40;42.20;;;;;;5099448;27;45374;-69
2023/01/21 01:36:26;;;;;;;9.40;5.85;;;15.40;42.20;;;;;;5108606;27;45374;-68
2023/01/21 01:38:53;;;;;;;10.20;6.18;;;15.40;42.20;;;;;;5108652;27;46317;-68
2023/01/21 01:41:23;;;;;;;9.85;5.78;;;15.40;42.10;;;;;;5096816;27;45388;-68
2023/01/21 01:43:53;;;;;;;9.40;5.30;;;15.40;42.00;;;;;;5108459;27;45388;-68
2023/01/21 01:46:23;;;;;;;8.10;5.38;;;15.30;42.00;;;;;;5108941;27;45213;-68
2023/01/21 01:48:55;;;;;;;10.20;6.20;;;15.30;42.00;;;;;;5103227;27;46626;-68
2023/01/21 01:51:26;;;;;;;10.98;5.30;;;15.30;42.10;;;;;;5103903;27;45754;-68
2023/01/21 01:53:53;;;;;;;8.95;5.60;;;15.30;42.20;;;;;;5106357;27;45384;-68
2023/01/21 01:56:21;;;;;;;10.13;5.78;;;15.30;42.20;;;;;;5102361;27;45527;-68
2023/01/21 01:58:48;;;;;;;9.30;5.85;;;15.30;42.30;;;;;;5107810;27;47105;-69
2023/01/21 02:01:15;;;;;;;9.68;5.63;;;15.30;42.50;;;;;;5108651;27;45445;-68
2023/01/21 02:03:49;;;;;;;7.88;5.40;;;15.30;42.30;;;;;;5104883;27;45351;-69
2023/01/21 02:06:18;;;;;;;8.95;5.75;;;15.30;42.20;;;;;;5095822;27;45340;-68
2023/01/21 02:08:46;;;;;;;9.35;5.72;;;15.30;42.20;;;;;;5098477;27;47327;-68
2023/01/21 02:11:14;;;;;;;9.73;6.07;;;15.30;42.20;;;;;;5108365;27;45558;-68
2023/01/21 02:13:43;;;;;;;10.40;6.65;;;15.40;42.40;;;;;;5093423;27;45207;-70
2023/01/21 02:16:30;;;;;;;8.95;5.93;;;15.30;42.00;;;;;;5104280;27;45351;-69
2023/01/21 02:19:17;;;;;;;8.50;5.85;;;15.40;42.20;;;;;;5103544;27;47843;-68
2023/01/21 02:22:02;;;;;;;10.65;6.88;;;15.40;42.10;;;;;;5103897;27;45438;-68
2023/01/21 02:25:02;;;;;;;8.32;5.38;;;15.40;42.00;;;;;;5103072;27;45466;-68
2023/01/21 02:27:42;;;;;;;8.65;5.95;;;15.40;42.10;;;;;;5099711;27;45344;-68
2023/01/21 02:31:00;;;;;;;7.05;5.53;;;15.40;42.00;;;;;;5091016;27;45258;-69
2023/01/21 02:33:53;;;;;;;9.20;5.90;;;15.40;42.00;;;;;;5019558;28;45489;-68
2023/01/21 02:36:37;;;;;;;9.27;5.93;;;15.40;41.90;;;;;;5013062;28;45416;-68
2023/01/21 02:39:15;;;;;;;11.05;6.05;;;15.40;41.90;;;;;;5076189;27;45549;-69
2023/01/21 02:41:56;;;;;;;8.50;5.85;;;15.40;42.00;;;;;;5088841;27;46996;-69
2023/01/21 02:44:33;;;;;;;9.55;6.05;;;15.40;42.00;;;;;;5104781;27;45266;-68
2023/01/21 02:47:10;;;;;;;8.85;6.25;;;15.40;42.00;;;;;;5101714;27;45217;-68
2023/01/21 02:49:41;;;;;;;12.70;6.10;;;15.40;42.00;;;;;;5097286;27;45518;-68
2023/01/21 02:52:16;;;;;;;10.85;6.28;;;15.40;41.90;;;;;;5093657;27;45312;-69
2023/01/21 02:54:55;;;;;;;11.25;6.00;;;15.40;41.80;;;;;;5103418;27;45390;-69
2023/01/21 02:57:37;;;;;;;9.05;6.00;;;15.30;41.60;;;;;;5091224;27;45328;-68
2023/01/21 03:00:09;;;;;;;12.80;6.72;;;15.30;41.50;;;;;;5101907;27;45421;-68
2023/01/21 03:03:00;;;;;;;10.23;6.35;;;15.30;41.40;;;;;;5095361;27;45422;-69
2023/01/21 03:05:39;;;;;;;8.32;5.70;;;15.30;41.40;;;;;;5092446;27;45386;-68
2023/01/21 03:08:17;;;;;;;10.68;5.82;;;15.30;41.40;;;;;;5095296;27;45424;-69
2023/01/21 03:10:49;;;;;;;10.02;6.47;;;15.30;41.40;;;;;;5095416;27;45506;-68
2023/01/21 03:18:52;;;;;;;11.25;6.50;;;15.30;41.20;;;;;;5097347;27;45245;-68
2023/01/21 03:21:26;;;;;;;10.75;6.32;;;15.30;41.20;;;;;;5104414;27;45608;-69
2023/01/21 03:23:55;;;;;;;11.15;6.95;;;15.30;41.40;;;;;;5095118;27;47453;-68
2023/01/21 03:26:30;;;;;;;9.38;5.65;;;15.30;41.20;;;;;;5097681;27;45334;-69
2023/01/21 03:29:01;;;;;;;9.20;6.10;;;15.30;41.30;;;;;;5100805;27;45293;-68
2023/01/21 03:31:31;;;;;;;10.65;6.55;;;15.30;41.30;;;;;;5097528;27;45208;-68
2023/01/21 03:34:02;;;;;;;11.98;7.05;;;15.30;41.20;;;;;;5091015;27;46526;-69
2023/01/21 03:36:37;;;;;;;8.15;5.60;;;15.30;41.10;;;;;;5103659;27;45308;-68
2023/01/21 03:39:09;;;;;;;9.13;6.18;;;15.30;41.10;;;;;;5100463;27;45462;-68
2023/01/21 03:41:39;;;;;;;8.93;5.55;;;15.30;41.10;;;;;;5092228;27;45285;-69
2023/01/21 03:44:06;;;;;;;8.95;6.05;;;15.30;41.20;;;;;;5096264;27;47127;-69
2023/01/21 03:46:37;;;;;;;8.25;5.72;;;15.30;41.30;;;;;;5103346;27;45339;-68
2023/01/21 03:49:09;;;;;;;10.35;6.75;;;15.30;41.40;;;;;;5093573;27;45320;-68
2023/01/21 03:51:42;;;;;;;10.50;6.25;;;15.30;41.40;;;;;;5089419;27;45353;-69
2023/01/21 03:54:09;;;;;;;9.60;6.18;;;15.30;42.50;;;;;;5095841;27;45382;-69
2023/01/21 03:56:36;;;;;;;8.35;5.78;;;15.30;41.40;;;;;;5101723;27;45308;-68
2023/01/21 03:59:02;;;;;;;8.48;6.03;;;15.30;41.50;;;;;;5103741;27;45375;-69
2023/01/21 04:01:29;;;;;;;9.02;5.78;;;15.20;41.40;;;;;;5098891;27;45274;-68
2023/01/21 04:03:56;;;;;;;9.32;6.65;;;15.30;41.50;;;;;;5101357;27;46394;-68
2023/01/21 04:06:23;;;;;;;10.20;5.78;;;15.30;41.50;;;;;;5101839;27;45391;-69
2023/01/21 04:08:51;;;;;;;11.52;6.18;;;15.30;41.50;;;;;;5103192;27;45379;-68
2023/01/21 04:11:18;;;;;;;8.82;5.57;;;15.30;41.50;;;;;;5104048;27;45396;-68
2023/01/21 04:13:45;;;;;;;10.50;6.70;;;15.30;41.50;;;;;;5098724;27;45529;-68
2023/01/21 04:16:11;;;;;;;10.50;6.45;;;15.30;41.60;;;;;;5102791;27;45488;-68
2023/01/21 04:18:38;;;;;;;9.90;6.88;;;15.30;41.10;;;;;;5103281;27;45311;-68
2023/01/21 04:21:05;;;;;;;11.65;6.47;;;15.20;40.40;;;;;;5093714;27;45491;-68
2023/01/21 04:23:32;;;;;;;10.05;6.72;;;15.20;39.90;;;;;;5097047;27;45451;-68
2023/01/21 04:26:00;;;;;;;12.23;7.45;;;15.20;40.00;;;;;;5093718;27;45308;-68
2023/01/21 04:28:27;;;;;;;10.63;6.00;;;15.20;39.70;;;;;;5103691;27;45332;-68
2023/01/21 04:30:54;;;;;;;10.85;7.07;;;15.20;42.40;;;;;;5101986;27;45416;-68
2023/01/21 04:33:21;;;;;;;11.32;7.40;;;15.20;42.00;;;;;;5096669;27;48053;-68
2023/01/21 04:35:48;;;;;;;11.63;7.05;;;15.20;41.30;;;;;;5094075;27;45381;-68
2023/01/21 04:38:15;;;;;;;13.25;7.75;;;15.10;40.70;;;;;;5100040;27;45393;-68
2023/01/21 04:40:42;;;;;;;11.23;7.07;;;15.10;40.30;;;;;;5091225;27;45442;-68
2023/01/21 04:43:10;;;;;;;14.20;8.38;;;15.10;41.20;;;;;;5102627;27;47406;-69
2023/01/21 04:45:37;;;;;;;13.43;7.70;;;15.10;39.90;;;;;;5102280;27;45496;-68
2023/01/21 04:48:04;;;;;;;12.07;7.57;;;15.10;39.50;;;;;;5099690;27;45495;-69
2023/01/21 04:50:31;;;;;;;15.13;8.90;;;15.10;39.20;;;;;;5098457;27;45543;-68
2023/01/21 04:52:57;;;;;;;13.38;8.65;;;15.00;39.00;;;;;;5100175;27;47083;-68
2023/01/21 04:55:24;;;;;;;15.18;8.75;;;15.00;38.80;;;;;;5083070;27;45376;-69
2023/01/21 04:57:51;;;;;;;14.85;9.10;;;15.00;38.80;;;;;;5101013;27;45310;-69
2023/01/21 05:00:20;;;;;;;14.48;8.98;;;15.00;38.70;;;;;;5091977;27;45533;-68
2023/01/21 05:02:46;;;;;;;13.73;8.32;;;15.00;38.40;;;;;;5101893;27;45411;-68
2023/01/21 05:05:13;;;;;;;15.50;8.98;;;15.00;38.20;;;;;;5102032;27;45363;-68
2023/01/21 05:07:40;;;;;;;13.10;8.65;;;15.00;38.20;;;;;;5101894;27;45350;-68
2023/01/21 05:10:08;;;;;;;14.63;8.35;;;15.00;38.20;;;;;;5102962;27;45290;-68
2023/01/21 05:12:34;;;;;;;13.60;8.57;;;15.00;38.20;;;;;;5100917;27;46601;-68
2023/01/21 05:15:01;;;;;;;13.00;8.38;;;15.10;38.20;;;;;;5102429;27;45311;-68
2023/01/21 05:17:29;;;;;;;14.45;8.60;;;15.10;38.20;;;;;;5102453;27;45435;-68
2023/01/21 05:19:56;;;;;;;13.07;8.52;;;15.10;38.20;;;;;;5094482;27;45269;-68
2023/01/21 05:22:23;;;;;;;13.18;8.10;;;15.10;38.10;;;;;;5094159;27;48729;-68
2023/01/21 05:24:50;;;;;;;12.00;8.15;;;15.10;37.80;;;;;;5101733;27;45465;-68
2023/01/21 05:27:18;;;;;;;12.98;8.25;;;15.10;38.10;;;;;;5093818;27;45420;-68
2023/01/21 05:29:45;;;;;;;11.77;8.07;;;15.10;37.90;;;;;;5093807;27;45303;-68
2023/01/21 05:32:12;;;;;;;12.23;7.63;;;15.10;37.90;;;;;;5097586;27;46265;-68
2023/01/21 05:34:40;;;;;;;14.02;7.70;;;15.00;37.80;;;;;;5094350;27;45384;-68
2023/01/21 05:37:07;;;;;;;14.30;7.90;;;15.00;39.00;;;;;;5101448;27;45477;-68
2023/01/21 05:39:34;;;;;;;13.30;7.90;;;15.00;37.70;;;;;;5101976;27;45444;-68
2023/01/21 05:42:00;;;;;;;12.32;8.10;;;15.00;37.70;;;;;;5092903;27;47978;-68
2023/01/21 05:44:27;;;;;;;12.13;7.50;;;15.00;37.70;;;;;;5095628;27;45286;-68
2023/01/21 05:46:54;;;;;;;12.13;7.57;;;15.00;37.60;;;;;;5092013;27;45214;-68
2023/01/21 05:49:21;;;;;;;12.23;7.43;;;15.00;37.50;;;;;;5090600;27;45326;-68
2023/01/21 05:51:49;;;;;;;14.07;7.95;;;15.00;37.60;;;;;;5087322;27;48349;-69
2023/01/21 05:54:16;;;;;;;12.32;8.05;;;15.00;37.50;;;;;;5097542;27;45722;-68
2023/01/21 05:56:42;;;;;;;12.40;7.40;;;15.00;37.40;;;;;;5092979;27;45214;-68
2023/01/21 05:59:09;;;;;;;12.32;8.02;;;15.00;37.50;;;;;;5103286;27;45546;-68
2023/01/21 06:01:36;;;;;;;9.90;7.05;;;15.00;37.60;;;;;;5093468;27;46574;-69
2023/01/21 06:04:03;;;;;;;10.50;7.15;;;15.00;37.50;;;;;;5097957;27;45285;-68
2023/01/21 06:06:30;;;;;;;11.70;7.50;;;15.00;37.40;;;;;;5103906;27;45407;-68
2023/01/21 06:08:58;;;;;;;11.10;7.65;;;15.00;37.40;;;;;;5096788;27;45243;-68
2023/01/21 06:11:25;;;;;;;10.30;7.13;;;15.00;37.60;;;;;;5103951;27;45424;-68
2023/01/21 06:13:51;;;;;;;11.52;6.88;;;15.00;37.40;;;;;;5100922;27;45475;-68
2023/01/21 06:16:18;;;;;;;10.75;7.03;;;15.00;37.00;;;;;;5104624;27;45371;-69
2023/01/21 06:18:45;;;;;;;11.02;7.20;;;15.00;36.80;;;;;;5105487;27;45344;-68
2023/01/21 06:21:12;;;;;;;10.75;7.13;;;15.00;36.80;;;;;;5104153;27;47677;-68
2023/01/21 06:23:39;;;;;;;12.35;7.32;;;15.00;36.90;;;;;;5105690;27;45368;-69
2023/01/21 06:26:07;;;;;;;10.60;7.05;;;15.00;36.70;;;;;;5104695;27;45190;-68
2023/01/21 06:28:33;;;;;;;10.95;7.03;;;15.00;36.70;;;;;;5105194;27;45546;-68
2023/01/21 06:31:00;;;;;;;13.38;6.80;;;15.00;36.90;;;;;;5096474;27;45490;-68
2023/01/21 06:33:27;;;;;;;10.55;7.03;;;14.90;36.70;;;;;;5101954;27;45264;-68
2023/01/21 06:35:53;;;;;;;12.82;7.28;;;14.90;36.50;;;;;;5100732;27;45445;-68
2023/01/21 06:38:20;;;;;;;11.48;7.60;;;14.90;36.30;;;;;;5104197;27;45274;-68
2023/01/21 06:40:47;;;;;;;12.18;8.43;;;14.90;36.30;;;;;;5104733;27;46069;-68
2023/01/21 06:43:15;;;;;;;12.55;7.43;;;14.90;36.30;;;;;;5104741;27;45408;-68
2023/01/21 06:45:42;;;;;;;8.52;6.47;;;14.90;36.30;;;;;;5099400;27;45388;-68
2023/01/21 06:48:09;;;;;;;12.38;7.50;;;14.90;36.10;;;;;;5102149;27;45510;-68
2023/01/21 06:50:36;;;;;;;10.15;6.88;;;14.90;36.30;;;;;;5094134;27;46738;-68
2023/01/21 06:53:03;;;;;;;12.13;7.60;;;15.00;36.10;;;;;;5094641;27;45542;-68
2023/01/21 06:55:29;;;;;;;11.15;7.38;;;15.00;36.20;;;;;;5095755;27;45313;-68
2023/01/21 06:57:56;;;;;;;9.52;6.28;;;15.00;36.20;;;;;;5100009;27;45437;-68
2023/01/21 07:00:24;;;;;;;10.98;7.07;;;15.00;36.20;;;;;;5104607;27;48250;-69
2023/01/21 07:02:56;;;;;;;10.57;7.13;;;15.00;36.20;;;;;;5104444;27;45408;-69
2023/01/21 07:05:23;;;;;;;13.02;7.75;;;15.00;36.10;;;;;;5094644;27;45485;-68
2023/01/21 07:07:49;;;;;;;10.90;6.82;;;15.00;36.20;;;;;;5094582;27;45347;-68
2023/01/21 07:10:17;;;;;;;9.80;6.43;;;15.00;36.20;;;;;;5101729;27;45363;-68
2023/01/21 07:12:44;;;;;;;9.27;6.20;;;15.10;36.60;;;;;;5102727;27;45466;-68
2023/01/21 07:15:11;;;;;;;10.05;6.10;;;15.10;37.00;;;;;;5103108;27;45301;-68
2023/01/21 07:17:39;;;;;;;10.63;6.40;;;15.10;37.40;;;;;;5104552;27;45259;-68
2023/01/21 07:20:07;;;;;;;12.45;6.55;;;15.10;37.60;;;;;;5095886;27;47071;-68
2023/01/21 07:22:34;;;;;;;11.05;7.10;;;15.10;37.80;;;;;;5084627;27;46057;-68
2023/01/21 07:25:01;;;;;;;12.45;7.20;;;15.10;37.80;;;;;;5091946;27;45384;-68
2023/01/21 07:27:28;;;;;;;11.02;6.28;;;15.10;38.10;;;;;;5094647;27;45528;-68
2023/01/21 07:29:55;;;;;;;10.80;7.03;;;15.10;38.30;;;;;;5096195;27;47390;-68
2023/01/21 07:32:21;;;;;;;9.38;5.78;;;15.10;38.50;;;;;;5095344;27;45352;-68
2023/01/21 07:34:50;;;;;;;11.27;7.03;;;15.10;38.70;;;;;;5090369;27;45245;-68
2023/01/21 07:37:16;;;;;;;9.52;6.22;;;15.10;38.80;;;;;;5110291;27;45613;-68
2023/01/21 07:39:43;;;;;;;9.65;6.60;;;15.10;38.80;;;;;;5103505;27;47508;-68
2023/01/21 07:42:10;;;;;;;10.13;6.47;;;15.10;38.90;;;;;;5096205;27;45488;-70
2023/01/21 07:44:37;;;;;;;10.00;6.63;;;15.10;38.70;;;;;;5097264;27;45586;-68
2023/01/21 07:47:04;;;;;;;10.52;7.38;;;15.10;38.40;;;;;;5096065;27;45610;-68
2023/01/21 07:49:31;;;;;;;9.95;6.65;;;15.10;37.90;;;;;;5102895;27;47327;-69
2023/01/21 07:51:59;;;;;;;10.52;6.18;;;15.20;38.00;;;;;;5100583;27;45634;-68
2023/01/21 07:54:26;;;;;;;8.77;6.10;;;15.20;38.10;;;;;;5101280;27;45292;-68
2023/01/21 07:56:52;;;;;;;10.57;7.40;;;15.20;38.00;;;;;;5106785;27;45268;-70
2023/01/21 07:59:20;;;;;;;29.27;6.18;;;15.10;38.00;;;;;;5105341;27;46561;-68
2023/01/21 08:01:47;;;;;;;13.15;6.80;;;15.30;40.40;;;;;;5103713;27;45338;-68
2023/01/21 08:04:13;;;;;;;9.52;6.22;;;15.30;38.50;;;;;;5097133;27;45380;-69
2023/01/21 08:06:40;;;;;;;11.75;6.38;;;15.20;38.50;;;;;;5095256;27;45198;-69
2023/01/21 08:09:09;;;;;;;9.20;5.88;;;15.20;38.50;;;;;;5096994;27;45369;-69
2023/01/21 08:11:35;;;;;;;11.52;6.18;;;15.20;38.40;;;;;;5103379;27;45434;-69
2023/01/21 08:14:02;;;;;;;10.95;6.45;;;15.20;38.70;;;;;;5106582;27;45266;-69
2023/01/21 08:16:29;;;;;;;10.60;6.30;;;15.10;39.20;;;;;;5099653;27;45561;-69
2023/01/21 08:18:56;;;;;;;11.07;6.82;;;15.10;39.40;;;;;;5110240;27;46108;-69
2023/01/21 08:21:23;;;;;;;10.07;6.20;;;15.10;39.20;;;;;;5096666;27;45421;-68
2023/01/21 08:23:50;;;;;;;11.07;7.03;;;15.10;39.10;;;;;;5104340;27;45390;-69
2023/01/21 08:26:18;;;;;;;12.02;7.22;;;15.10;39.00;;;;;;5103435;27;45393;-69
2023/01/21 08:28:45;;;;;;;13.00;7.70;;;15.10;38.80;;;;;;5108846;27;47055;-70
2023/01/21 08:31:13;;;;;;;12.30;8.18;;;15.00;38.50;;;;;;5103562;27;45417;-68
2023/01/21 08:33:40;;;;;;;11.48;7.57;;;15.00;38.40;;;;;;5107563;27;45343;-69
2023/01/21 08:36:08;;;;;;;14.05;7.97;;;15.00;38.20;;;;;;5101451;27;45699;-69
2023/01/21 08:38:35;;;;;;;11.80;7.60;;;15.00;38.10;;;;;;5102120;27;45374;-69
2023/01/21 08:41:01;;;;;;;12.55;7.82;;;15.10;37.90;;;;;;5092983;27;45456;-69
2023/01/21 08:43:30;;;;;;;13.00;8.02;;;15.10;37.60;;;;;;5104053;27;45551;-68
2023/01/21 08:45:58;;;;;;;14.00;8.65;;;15.10;37.40;;;;;;5097994;27;45295;-69
2023/01/21 08:48:25;;;;;;;12.88;8.30;;;15.10;37.30;;;;;;5098035;27;47566;-69
2023/01/21 08:50:51;;;;;;;16.40;8.70;;;15.10;37.20;;;;;;5103504;27;45242;-69
2023/01/21 08:53:18;;;;;;;14.38;8.65;;;15.10;37.00;;;;;;5103958;27;45359;-68
2023/01/21 08:55:45;;;;;;;14.30;8.23;;;15.10;37.00;;;;;;5099840;27;45420;-69
2023/01/21 08:58:12;;;;;;;12.75;7.97;;;15.10;36.80;;;;;;5102460;27;46076;-69
2023/01/21 09:00:41;;;;;;;14.40;9.05;;;15.10;36.90;;;;;;5103284;27;45400;-69
2023/01/21 09:03:08;;;;;;;12.98;9.10;;;15.10;37.00;;;;;;5107319;27;45627;-70
2023/01/21 09:05:34;;;;;;;12.55;8.50;;;15.10;37.00;;;;;;5102701;27;45297;-69
2023/01/21 09:08:01;;;;;;;15.80;9.73;;;15.00;37.00;;;;;;5102325;27;47528;-69
2023/01/21 09:13:12;;;;;;;15.43;9.05;;;15.00;37.00;;;;;;5092320;27;45437;-69
2023/01/21 09:15:41;;;;;;;13.90;8.93;;;15.00;37.00;;;;;;5108313;27;45423;-69
2023/01/21 09:18:08;;;;;;;13.40;8.48;;;15.00;37.20;;;;;;5093817;27;46261;-69
2023/01/21 09:20:35;;;;;;;14.60;9.25;;;15.00;37.10;;;;;;5104377;27;45468;-69
2023/01/21 09:23:22;;;;;;;14.98;9.32;;;15.00;37.10;;;;;;5098502;27;45730;-69
2023/01/21 09:25:49;;;;;;;15.23;8.75;;;15.00;37.20;;;;;;5095840;27;45341;-69
2023/01/21 09:28:16;;;;;;;15.20;8.13;;;15.00;37.20;;;;;;5093462;27;46722;-69
2023/01/21 09:30:45;;;;;;;14.60;8.63;;;15.00;38.40;;;;;;5101152;27;45331;-69
2023/01/21 09:33:11;;;;;;;17.17;8.65;;;15.00;37.20;;;;;;5104273;27;45423;-69
2023/01/21 09:35:38;;;;;;;14.73;8.38;;;15.00;37.20;;;;;;5102956;27;45617;-69
2023/01/21 09:38:05;;;;;;;14.13;8.57;;;15.00;37.20;;;;;;5104353;27;45537;-69
2023/01/21 09:40:32;;;;;;;12.82;8.70;;;15.00;37.20;;;;;;5105642;27;45564;-69
2023/01/21 09:43:08;;;;;;;14.00;9.13;;;15.00;37.00;;;;;;5106305;27;45463;-69
2023/01/21 09:45:35;;;;;;;15.30;9.30;;;14.90;37.00;;;;;;5104938;27;45549;-69
2023/01/21 09:48:07;;;;;;;16.77;9.80;;;15.00;37.00;;;;;;5105399;27;47999;-69
2023/01/21 09:50:37;;;;;;;16.35;9.48;;;15.00;37.00;;;;;;5106048;27;45404;-69
2023/01/21 09:53:18;;;;;;;13.88;8.45;;;15.00;36.90;;;;;;5106283;27;45283;-69
2023/01/21 09:55:49;;;;;;;13.40;8.52;;;14.90;37.00;;;;;;5105306;27;45375;-69
2023/01/21 09:58:23;;;;;;;14.55;8.88;;;14.90;37.00;;;;;;5106445;27;45296;-68
2023/01/21 10:00:55;;;;;;;14.18;9.15;;;14.90;37.00;;;;;;5105903;27;45382;-68
2023/01/21 10:03:32;;;;;;;14.00;8.23;;;14.90;37.00;;;;;;5099590;27;45262;-69
2023/01/21 10:06:21;;;;;;;13.50;8.52;;;14.90;36.70;;;;;;5105749;27;45269;-68
2023/01/21 10:09:01;;;;;;;13.90;8.52;;;14.90;36.80;;;;;;5105188;27;46631;-69
2023/01/21 10:11:38;;;;;;;13.23;8.60;;;14.90;36.90;;;;;;5106098;27;45339;-69
2023/01/21 10:14:21;;;;;;;13.07;8.38;;;14.90;36.80;;;;;;5103057;27;45338;-69
2023/01/21 10:16:57;;;;;;;13.07;8.73;;;14.90;38.20;;;;;;5105090;27;45446;-69
2023/01/21 10:19:36;;;;;;;16.23;8.68;;;14.90;41.40;;;;;;5098797;27;45617;-69
2023/01/21 10:22:09;;;;;;;12.85;8.32;;;14.90;40.40;;;;;;5105646;27;45299;-69
2023/01/21 10:24:40;;;;;;;14.27;8.57;;;14.90;39.70;;;;;;5105551;27;45399;-69
2023/01/21 10:27:14;;;;;;;15.90;8.90;;;14.90;39.00;;;;;;5103713;27;45258;-69
2023/01/21 10:29:41;;;;;;;12.82;8.38;;;14.90;38.70;;;;;;5105279;27;45377;-69
2023/01/21 10:32:15;;;;;;;13.10;8.00;;;14.90;38.40;;;;;;5104904;27;45375;-69
2023/01/21 10:34:50;;;;;;;14.65;8.48;;;14.90;38.30;;;;;;5105547;27;45337;-69
2023/01/21 10:37:26;;;;;;;15.30;7.85;;;15.00;38.10;;;;;;5098036;27;45420;-69
2023/01/21 10:40:01;;;;;;;15.52;9.05;;;15.00;38.10;;;;;;5105280;27;47013;-69
2023/01/21 10:42:49;;;;;;;14.10;7.95;;;14.90;37.80;;;;;;5105024;27;45351;-69
2023/01/21 10:45:33;;;;;;;14.52;7.75;;;14.90;37.60;;;;;;5097949;27;45253;-68
2023/01/21 10:48:07;;;;;;;13.93;7.95;;;14.90;37.50;;;;;;5105602;27;45309;-69
2023/01/21 10:50:45;;;;;;;13.90;7.65;;;14.90;37.60;;;;;;5105165;27;46325;-69
2023/01/21 10:53:21;;;;;;;13.00;7.95;;;14.90;37.60;;;;;;5089858;27;45347;-69
2023/01/21 10:56:00;;;;;;;14.95;8.23;;;14.90;37.50;;;;;;5104353;27;45341;-68
2023/01/21 10:58:32;;;;;;;13.23;7.68;;;14.90;37.70;;;;;;5105675;27;45461;-68
2023/01/21 11:01:02;;;;;;;14.25;7.65;;;14.90;37.60;;;;;;5105186;27;47170;-69
2023/01/21 11:03:37;;;;;;;16.75;7.95;;;14.90;37.70;;;;;;5104557;27;45493;-69
2023/01/21 11:06:08;;;;;;;12.07;7.45;;;14.90;37.70;;;;;;5104628;27;45382;-69
2023/01/21 11:08:35;;;;;;;13.48;7.75;;;14.90;37.70;;;;;;5104992;27;45276;-69
2023/01/21 11:11:03;;;;;;;13.65;7.88;;;14.90;37.70;;;;;;5097331;27;48401;-69
2023/01/21 11:13:29;;;;;;;16.02;8.32;;;14.90;37.80;;;;;;5104719;27;46053;-69
2023/01/21 11:15:59;;;;;;;13.93;7.80;;;14.90;37.80;;;;;;5103678;27;45346;-69
2023/01/21 11:18:28;;;;;;;14.65;7.78;;;14.90;37.80;;;;;;5105162;27;45474;-69
2023/01/21 11:20:58;;;;;;;13.07;7.65;;;14.90;37.80;;;;;;5104438;27;46397;-69
2023/01/21 11:23:29;;;;;;;13.77;8.10;;;14.90;37.70;;;;;;5104592;27;45986;-68
2023/01/21 11:26:05;;;;;;;13.20;8.05;;;15.00;37.70;;;;;;5101519;27;45328;-69
2023/01/21 11:28:33;;;;;;;15.18;7.82;;;15.00;37.60;;;;;;5099722;27;45272;-69
2023/01/21 11:31:11;;;;;;;12.57;7.55;;;15.00;37.60;;;;;;5104867;27;46682;-69
2023/01/21 11:33:39;;;;;;;16.00;8.75;;;15.00;37.50;;;;;;5104425;27;45538;-69
2023/01/21 11:36:12;;;;;;;11.88;7.05;;;15.00;37.40;;;;;;5103386;27;45312;-68
2023/01/21 11:38:40;;;;;;;12.05;7.35;;;15.10;37.70;;;;;;5104814;27;45407;-69
2023/01/21 11:41:17;;;;;;;14.18;8.02;;;15.00;37.50;;;;;;5104451;27;47697;-69
2023/01/21 11:43:45;;;;;;;13.57;7.85;;;15.00;37.50;;;;;;5097357;27;45362;-69
2023/01/21 11:46:24;;;;;;;15.25;7.95;;;15.00;37.30;;;;;;5104073;27;45257;-69
2023/01/21 11:48:54;;;;;;;13.55;7.75;;;15.00;37.30;;;;;;5104623;27;45393;-69
2023/01/21 11:51:21;;;;;;;13.38;7.72;;;15.00;37.50;;;;;;5103923;27;48038;-70
2023/01/21 11:54:07;;;;;;;15.10;7.90;;;15.00;37.40;;;;;;5104115;27;45351;-69
2023/01/21 11:56:36;;;;;;;13.57;7.80;;;15.00;37.40;;;;;;5103058;27;45404;-69
2023/01/21 11:59:13;;;;;;;14.60;8.00;;;15.00;37.50;;;;;;5104243;27;45206;-69
2023/01/21 12:01:40;;;;;;;14.43;8.38;;;14.90;37.40;;;;;;5096265;27;46700;-69
2023/01/21 12:04:14;;;;;;;16.67;8.20;;;14.90;37.60;;;;;;5103930;27;45287;-69
2023/01/21 12:06:46;;;;;;;14.48;7.95;;;14.90;37.60;;;;;;5103861;27;45336;-69
2023/01/21 12:09:18;;;;;;;15.00;7.90;;;14.90;37.70;;;;;;5096350;27;45498;-69
2023/01/21 12:12:01;;;;;;;12.55;7.47;;;14.90;37.70;;;;;;5103382;27;46569;-69
2023/01/21 12:14:35;;;;;;;18.05;8.55;;;14.90;37.70;;;;;;5104118;27;45295;-69
2023/01/21 12:17:11;;;;;;;13.00;7.03;;;14.90;37.70;;;;;;5101738;27;45312;-69
2023/01/21 12:19:53;;;;;;;12.80;6.72;;;14.90;37.70;;;;;;5103955;27;45317;-69
2023/01/21 12:22:30;;;;;;;13.18;7.38;;;15.00;40.90;;;;;;5104006;27;45220;-70
2023/01/21 12:25:14;;;;;;;11.75;6.95;;;15.00;41.90;;;;;;5103479;27;45452;-69
2023/01/21 12:27:52;;;;;;;12.15;7.40;;;15.00;41.10;;;;;;5102721;27;45312;-69
2023/01/21 12:30:26;;;;;;;13.88;7.07;;;15.00;40.40;;;;;;5096652;27;45405;-69
2023/01/21 12:32:58;;;;;;;13.13;7.78;;;15.00;40.00;;;;;;5103388;27;48210;-69
2023/01/21 12:35:32;;;;;;;12.85;7.90;;;15.00;39.60;;;;;;5095835;27;45279;-69
2023/01/21 12:38:03;;;;;;;13.90;7.95;;;15.00;39.30;;;;;;5102542;27;45477;-69
2023/01/21 12:40:35;;;;;;;14.40;8.05;;;15.00;39.10;;;;;;5103490;27;45382;-68
2023/01/21 12:43:07;;;;;;;13.75;8.27;;;15.00;39.00;;;;;;5103256;27;46283;-69
2023/01/21 12:45:39;;;;;;;15.55;7.63;;;14.90;38.90;;;;;;5102821;27;45366;-68
2023/01/21 12:48:15;;;;;;;14.48;7.88;;;14.90;38.80;;;;;;5104198;27;45231;-69
2023/01/21 12:50:46;;;;;;;12.15;7.93;;;14.90;38.80;;;;;;5103700;27;45423;-69
2023/01/21 12:53:19;;;;;;;16.15;8.45;;;14.90;38.70;;;;;;5102942;27;45634;-69
2023/01/21 12:56:20;;;;;;;15.38;8.27;;;14.90;38.70;;;;;;5099444;27;45319;-69
2023/01/21 12:58:53;;;;;;;13.50;7.65;;;14.90;38.70;;;;;;5103490;27;45210;-69
2023/01/21 13:01:35;;;;;;;12.95;7.97;;;14.90;38.50;;;;;;5102956;27;45574;-69
2023/01/21 13:04:12;;;;;;;12.98;7.43;;;14.90;38.60;;;;;;5102744;27;46306;-69